Time;durP1;ratioP1;P1;durP2;ratioP2;P2;SDS_P1;SDS_P2;PMS_P1;PMS_P2;Temp;Humidity;BMP_temperature;BMP_pressure;BME280_temperature;BME280_humidity;BME280_pressure;Samples;Min_cycle;Max_cycle;Signal;HPM_P1;HPM_P2
2022/03/12 00:01:47;;;;;;;14.95;5.07;;;9.60;78.80;;;;;;4945063;28;20058;-70
2022/03/12 00:04:19;;;;;;;13.32;5.65;;;9.60;78.60;;;;;;4938564;28;20106;-70
2022/03/12 00:06:46;;;;;;;12.52;5.80;;;9.60;77.90;;;;;;4951379;28;20046;-70
2022/03/12 00:09:12;;;;;;;9.00;4.82;;;9.60;78.00;;;;;;4951249;28;20035;-70
2022/03/12 00:11:47;;;;;;;12.23;5.95;;;9.50;79.40;;;;;;4961592;28;20035;-70
2022/03/12 00:14:15;;;;;;;9.27;4.05;;;9.50;78.50;;;;;;4951067;28;20360;-70
2022/03/12 00:16:41;;;;;;;15.85;4.50;;;9.50;79.40;;;;;;4949340;28;20031;-70
2022/03/12 00:19:07;;;;;;;10.10;5.63;;;9.50;78.60;;;;;;4950921;28;20033;-70
2022/03/12 00:21:35;;;;;;;7.18;3.15;;;9.40;77.30;;;;;;4951228;28;20029;-70
2022/03/12 00:24:05;;;;;;;14.00;4.72;;;9.40;77.80;;;;;;4950041;28;20031;-70
2022/03/12 00:26:31;;;;;;;18.23;5.10;;;9.40;77.10;;;;;;4960913;28;20050;-70
2022/03/12 00:28:57;;;;;;;4.40;2.17;;;9.40;77.30;;;;;;4950943;28;20043;-70
2022/03/12 00:31:23;;;;;;;5.47;2.45;;;9.30;79.20;;;;;;4949979;28;20031;-70
2022/03/12 00:33:49;;;;;;;7.10;4.10;;;9.30;79.50;;;;;;4950965;28;20041;-70
2022/03/12 00:36:17;;;;;;;9.93;4.50;;;9.30;79.90;;;;;;4949762;28;20076;-70
2022/03/12 00:38:44;;;;;;;7.78;3.58;;;9.30;79.00;;;;;;4949986;28;20806;-70
2022/03/12 00:41:10;;;;;;;11.60;5.10;;;9.30;80.40;;;;;;4950756;28;20031;-70
2022/03/12 00:43:35;;;;;;;9.00;4.63;;;9.40;79.90;;;;;;4942951;28;20055;-70
2022/03/12 00:46:01;;;;;;;7.55;4.13;;;9.30;79.30;;;;;;4945527;28;20459;-69
2022/03/12 00:48:27;;;;;;;11.98;3.70;;;9.30;79.30;;;;;;4950384;28;20805;-70
2022/03/12 00:50:53;;;;;;;5.30;2.90;;;9.30;80.00;;;;;;4950435;28;20062;-70
2022/03/12 00:53:19;;;;;;;7.43;4.57;;;9.30;80.30;;;;;;4949684;28;20462;-70
2022/03/12 00:55:48;;;;;;;8.75;4.13;;;9.30;79.50;;;;;;4937906;28;20118;-69
2022/03/12 00:58:13;;;;;;;12.70;4.35;;;9.30;79.30;;;;;;4950238;28;20494;-70
2022/03/12 01:00:39;;;;;;;10.25;3.63;;;9.30;79.70;;;;;;4949582;28;20114;-69
2022/03/12 01:03:04;;;;;;;14.30;4.50;;;9.20;80.20;;;;;;4950671;28;20059;-70
2022/03/12 01:05:55;;;;;;;11.15;5.28;;;9.20;80.00;;;;;;4949954;28;20031;-69
2022/03/12 01:08:25;;;;;;;8.38;4.43;;;9.10;79.20;;;;;;4949266;28;20138;-70
2022/03/12 01:10:52;;;;;;;5.10;2.20;;;9.10;79.70;;;;;;4944699;28;20114;-70
2022/03/12 01:13:18;;;;;;;8.50;4.57;;;9.10;80.80;;;;;;4930525;28;20043;-69
2022/03/12 01:15:44;;;;;;;9.32;4.53;;;9.10;80.80;;;;;;4935098;28;20046;-70
2022/03/12 01:18:16;;;;;;;12.48;4.28;;;9.10;80.10;;;;;;4950505;28;20483;-70
2022/03/12 01:20:42;;;;;;;4.28;2.15;;;9.10;79.70;;;;;;4954919;28;20099;-70
2022/03/12 01:23:08;;;;;;;10.05;5.70;;;9.00;80.80;;;;;;4980802;28;20123;-70
2022/03/12 01:25:35;;;;;;;20.33;5.93;;;9.00;80.50;;;;;;4957255;28;20022;-69
2022/03/12 01:28:00;;;;;;;14.48;4.85;;;9.00;79.10;;;;;;4955642;28;20055;-70
2022/03/12 01:30:30;;;;;;;14.25;4.13;;;9.00;79.10;;;;;;4963285;28;20066;-70
2022/03/12 01:32:56;;;;;;;9.52;4.22;;;9.00;80.20;;;;;;4953841;28;20447;-70
2022/03/12 01:35:22;;;;;;;11.60;4.03;;;9.00;80.40;;;;;;4952835;28;20089;-69
2022/03/12 01:37:48;;;;;;;10.15;4.30;;;9.00;80.10;;;;;;4954841;28;20433;-69
2022/03/12 01:40:14;;;;;;;9.90;4.00;;;9.00;80.00;;;;;;4953182;28;20031;-69
2022/03/12 01:42:40;;;;;;;9.07;4.07;;;9.00;80.80;;;;;;4952734;28;20039;-70
2022/03/12 01:45:09;;;;;;;8.25;4.88;;;9.00;80.80;;;;;;4953242;28;20027;-69
2022/03/12 01:47:36;;;;;;;4.10;2.15;;;9.00;80.00;;;;;;4953332;28;20387;-69
2022/03/12 01:50:05;;;;;;;9.27;3.72;;;9.00;81.10;;;;;;4952943;28;20047;-69
2022/03/12 01:52:31;;;;;;;7.45;4.22;;;9.00;81.30;;;;;;4951640;28;20066;-69
2022/03/12 01:54:57;;;;;;;12.35;4.97;;;9.00;80.90;;;;;;4950721;28;20429;-69
2022/03/12 01:57:23;;;;;;;7.97;4.20;;;8.90;80.70;;;;;;4955937;28;20517;-69
2022/03/12 01:59:49;;;;;;;9.20;4.57;;;8.90;81.10;;;;;;4953077;28;20039;-69
2022/03/12 02:02:15;;;;;;;8.38;3.42;;;8.90;81.20;;;;;;4952309;28;20031;-70
2022/03/12 02:04:51;;;;;;;3.67;2.40;;;8.90;81.50;;;;;;4953798;28;20521;-69
2022/03/12 02:07:18;;;;;;;9.23;3.88;;;8.90;81.80;;;;;;4943767;28;20031;-69
2022/03/12 02:09:44;;;;;;;9.25;3.95;;;8.90;81.90;;;;;;4952312;28;20038;-69
2022/03/12 02:12:11;;;;;;;8.48;4.40;;;8.90;82.70;;;;;;4939732;28;20492;-70
2022/03/12 02:14:37;;;;;;;13.40;5.60;;;8.90;81.90;;;;;;4952839;28;20478;-69
2022/03/12 02:17:10;;;;;;;10.98;4.60;;;8.80;80.20;;;;;;4939530;28;20035;-69
2022/03/12 02:19:38;;;;;;;14.30;4.88;;;8.80;79.00;;;;;;4953193;28;20051;-69
2022/03/12 02:22:10;;;;;;;10.82;4.93;;;8.80;79.10;;;;;;4952831;28;20076;-69
2022/03/12 02:24:37;;;;;;;6.25;2.53;;;8.80;79.40;;;;;;4952653;28;20395;-69
2022/03/12 02:27:05;;;;;;;6.55;3.53;;;8.80;80.90;;;;;;4950716;28;20024;-69
2022/03/12 02:29:35;;;;;;;6.07;3.17;;;8.80;80.00;;;;;;4947693;28;20493;-69
2022/03/12 02:32:08;;;;;;;7.03;3.75;;;8.70;80.10;;;;;;4939107;28;20040;-69
2022/03/12 02:34:46;;;;;;;12.00;4.20;;;8.70;79.50;;;;;;4947433;28;20040;-70
2022/03/12 02:37:13;;;;;;;7.97;3.83;;;8.70;79.90;;;;;;4945244;28;20047;-69
2022/03/12 02:39:39;;;;;;;9.88;5.50;;;8.70;81.00;;;;;;4945316;28;20042;-69
2022/03/12 02:42:06;;;;;;;7.32;4.00;;;8.70;79.10;;;;;;4945786;28;20116;-70
2022/03/12 02:44:32;;;;;;;7.30;4.25;;;8.70;78.60;;;;;;4950460;28;20467;-69
2022/03/12 02:47:16;;;;;;;7.78;4.28;;;8.70;79.00;;;;;;4952028;28;20043;-70
2022/03/12 02:49:58;;;;;;;9.10;4.50;;;8.60;79.00;;;;;;4947038;28;20100;-70
2022/03/12 02:52:27;;;;;;;8.77;4.78;;;8.70;78.00;;;;;;4946782;28;20080;-69
2022/03/12 02:54:53;;;;;;;8.80;4.55;;;8.60;78.40;;;;;;4941888;28;20036;-70
2022/03/12 02:57:25;;;;;;;11.18;5.32;;;8.60;79.40;;;;;;4951995;28;20157;-69
2022/03/12 02:59:58;;;;;;;8.40;5.00;;;8.60;78.00;;;;;;4949940;28;20514;-70
2022/03/12 03:02:38;;;;;;;14.63;4.72;;;8.60;77.70;;;;;;4952098;28;20467;-70
2022/03/12 03:05:06;;;;;;;11.07;4.93;;;8.60;76.10;;;;;;4947425;28;20044;-70
2022/03/12 03:07:35;;;;;;;7.53;4.90;;;8.60;75.70;;;;;;4942037;28;20486;-69
2022/03/12 03:10:02;;;;;;;11.07;5.18;;;8.50;75.90;;;;;;4978307;28;20031;-70
2022/03/12 03:12:28;;;;;;;8.75;5.05;;;8.50;76.40;;;;;;4957704;28;20681;-69
2022/03/12 03:14:54;;;;;;;10.00;5.22;;;8.50;76.50;;;;;;4951209;28;20035;-69
2022/03/12 03:17:19;;;;;;;12.07;5.82;;;8.50;76.30;;;;;;4956497;28;20031;-69
2022/03/12 03:19:45;;;;;;;9.43;4.55;;;8.50;76.00;;;;;;4942511;28;20035;-69
2022/03/12 03:22:12;;;;;;;9.77;5.55;;;8.50;76.00;;;;;;4951939;28;20039;-69
2022/03/12 03:24:38;;;;;;;3.42;1.95;;;8.40;75.20;;;;;;4942548;28;20035;-69
2022/03/12 03:27:05;;;;;;;7.18;3.22;;;8.40;77.70;;;;;;4956259;28;20097;-69
2022/03/12 03:29:33;;;;;;;9.98;5.43;;;8.50;77.70;;;;;;4959356;28;20070;-70
2022/03/12 03:32:02;;;;;;;12.65;5.10;;;8.40;76.80;;;;;;4942689;28;20036;-69
2022/03/12 03:34:29;;;;;;;12.15;5.20;;;8.40;75.50;;;;;;4942284;28;20256;-69
2022/03/12 03:36:55;;;;;;;8.52;4.30;;;8.40;75.00;;;;;;4932538;28;20485;-69
2022/03/12 03:39:22;;;;;;;9.00;4.72;;;8.40;75.40;;;;;;4950367;28;20085;-69
2022/03/12 03:41:48;;;;;;;5.57;3.65;;;8.40;73.70;;;;;;4938480;28;20036;-69
2022/03/12 03:44:22;;;;;;;10.60;4.43;;;8.40;74.60;;;;;;4960425;28;20031;-69
2022/03/12 03:46:48;;;;;;;11.47;4.33;;;8.40;74.50;;;;;;4950855;28;20457;-69
2022/03/12 03:49:13;;;;;;;12.38;5.97;;;8.40;76.00;;;;;;4950749;28;20067;-69
2022/03/12 03:51:41;;;;;;;9.23;5.00;;;8.30;74.00;;;;;;4950212;28;20485;-69
2022/03/12 03:54:10;;;;;;;7.05;3.85;;;8.30;73.20;;;;;;4951813;28;20122;-69
2022/03/12 03:56:37;;;;;;;9.65;3.92;;;8.30;74.20;;;;;;4937824;28;20039;-69
2022/03/12 03:59:04;;;;;;;7.97;4.72;;;8.30;74.10;;;;;;4951349;28;20149;-69
2022/03/12 04:01:30;;;;;;;7.15;3.90;;;8.40;72.60;;;;;;4948846;28;20050;-69
2022/03/12 04:03:58;;;;;;;8.45;4.28;;;8.30;73.10;;;;;;4942006;28;20100;-69
2022/03/12 04:06:26;;;;;;;6.63;3.72;;;8.30;72.50;;;;;;4951088;28;20491;-69
2022/03/12 04:08:53;;;;;;;10.65;5.05;;;8.30;72.30;;;;;;4939375;28;20122;-69
2022/03/12 04:11:21;;;;;;;14.57;4.15;;;8.30;71.10;;;;;;4949757;28;20039;-69
2022/03/12 04:13:48;;;;;;;8.68;4.50;;;8.30;72.00;;;;;;4939269;28;20036;-69
2022/03/12 04:16:15;;;;;;;11.23;4.90;;;8.30;71.90;;;;;;4950134;28;20027;-69
2022/03/12 04:18:45;;;;;;;10.63;3.80;;;8.30;72.00;;;;;;4956324;28;20089;-69
2022/03/12 04:21:13;;;;;;;9.55;3.85;;;8.40;72.20;;;;;;4939182;28;20097;-69
2022/03/12 04:23:39;;;;;;;11.73;4.65;;;8.30;71.50;;;;;;4949932;28;20453;-69
2022/03/12 04:26:05;;;;;;;10.05;5.00;;;8.30;71.30;;;;;;4951039;28;20035;-69
2022/03/12 04:28:32;;;;;;;8.05;4.25;;;8.30;71.00;;;;;;4952335;28;20179;-69
2022/03/12 04:30:59;;;;;;;4.93;3.20;;;8.30;70.70;;;;;;4950290;28;20050;-69
2022/03/12 04:33:26;;;;;;;10.88;4.40;;;8.30;70.30;;;;;;4947774;28;20481;-69
2022/03/12 04:35:52;;;;;;;8.60;3.05;;;8.30;70.00;;;;;;4935364;28;20028;-70
2022/03/12 04:38:17;;;;;;;7.72;4.00;;;8.30;70.90;;;;;;4939756;28;20035;-69
2022/03/12 04:40:44;;;;;;;9.05;3.85;;;8.20;71.40;;;;;;4948530;28;20560;-69
2022/03/12 04:43:12;;;;;;;7.25;3.67;;;8.30;71.30;;;;;;4949702;28;20417;-70
2022/03/12 04:45:41;;;;;;;9.18;4.40;;;8.20;71.70;;;;;;4952797;28;20032;-70
2022/03/12 04:48:07;;;;;;;12.15;4.13;;;8.30;71.40;;;;;;4996232;28;20124;-69
2022/03/12 04:50:32;;;;;;;2.45;1.60;;;8.30;71.50;;;;;;4981822;28;20159;-70
2022/03/12 04:53:01;;;;;;;8.15;3.90;;;8.20;73.20;;;;;;5012104;28;20116;-69
2022/03/12 04:55:29;;;;;;;6.53;4.00;;;8.30;73.40;;;;;;4980157;28;20481;-69
2022/03/12 04:57:55;;;;;;;8.65;4.40;;;8.30;73.70;;;;;;4993314;28;20054;-69
2022/03/12 05:00:31;;;;;;;7.72;3.90;;;8.30;73.30;;;;;;5011103;28;20033;-69
2022/03/12 05:03:29;;;;;;;8.18;4.63;;;8.30;73.00;;;;;;4999197;28;20024;-69
2022/03/12 05:05:56;;;;;;;11.35;3.97;;;8.30;72.30;;;;;;5005174;28;20170;-69
2022/03/12 05:08:22;;;;;;;10.65;5.00;;;8.20;71.80;;;;;;5004860;28;20100;-69
2022/03/12 05:10:51;;;;;;;12.43;3.65;;;8.20;71.40;;;;;;5016094;28;20130;-69
2022/03/12 05:13:25;;;;;;;7.00;3.30;;;8.20;71.00;;;;;;4989577;28;20034;-70
2022/03/12 05:15:56;;;;;;;7.70;4.10;;;8.20;72.60;;;;;;4966140;28;20032;-70
2022/03/12 05:18:23;;;;;;;8.18;4.28;;;8.30;72.20;;;;;;5008429;28;20033;-70
2022/03/12 05:20:50;;;;;;;10.18;4.95;;;8.20;72.30;;;;;;4989040;28;20042;-69
2022/03/12 05:23:18;;;;;;;8.82;3.97;;;8.20;72.50;;;;;;5017906;28;20025;-70
2022/03/12 05:25:47;;;;;;;11.80;4.53;;;8.20;72.90;;;;;;4996352;28;20032;-70
2022/03/12 05:28:20;;;;;;;10.68;3.90;;;8.20;73.20;;;;;;4979725;28;20039;-70
2022/03/12 05:30:46;;;;;;;8.68;3.70;;;8.20;73.10;;;;;;4998330;28;20025;-69
2022/03/12 05:33:13;;;;;;;7.65;2.75;;;8.20;74.00;;;;;;4982996;28;20031;-70
2022/03/12 05:35:43;;;;;;;9.63;4.72;;;8.20;75.00;;;;;;5015443;28;20021;-71
2022/03/12 05:38:11;;;;;;;5.40;3.08;;;8.30;75.40;;;;;;5018440;28;20033;-71
2022/03/12 05:40:40;;;;;;;8.75;4.47;;;8.20;76.10;;;;;;5001665;28;20036;-71
2022/03/12 05:43:14;;;;;;;8.55;4.57;;;8.20;75.10;;;;;;5011189;28;20129;-71
2022/03/12 05:45:45;;;;;;;7.65;4.05;;;8.20;74.10;;;;;;4990391;28;20048;-71
2022/03/12 05:48:11;;;;;;;10.10;3.08;;;8.20;75.70;;;;;;5003579;28;20261;-71
2022/03/12 05:50:40;;;;;;;9.63;4.18;;;8.30;75.50;;;;;;5001918;28;20029;-70
2022/03/12 05:53:14;;;;;;;7.00;3.60;;;8.20;75.40;;;;;;4995997;28;20033;-70
2022/03/12 05:55:40;;;;;;;7.60;3.90;;;8.20;76.50;;;;;;4983367;28;20034;-71
2022/03/12 05:58:07;;;;;;;8.18;2.92;;;8.20;76.40;;;;;;5018024;28;20053;-71
2022/03/12 06:00:34;;;;;;;9.63;4.07;;;8.20;77.20;;;;;;5003997;28;20457;-70
2022/03/12 06:03:03;;;;;;;7.03;3.80;;;8.20;77.50;;;;;;4998934;28;20037;-71
2022/03/12 06:05:30;;;;;;;8.40;4.32;;;8.20;77.40;;;;;;5001198;28;20038;-70
2022/03/12 06:07:56;;;;;;;9.68;3.60;;;8.20;76.90;;;;;;4990462;28;20041;-70
2022/03/12 06:10:24;;;;;;;8.35;3.45;;;8.20;77.50;;;;;;5001025;28;20093;-70
2022/03/12 06:12:53;;;;;;;9.65;3.92;;;8.20;77.20;;;;;;5012128;28;20516;-71
2022/03/12 06:15:20;;;;;;;8.30;4.00;;;8.20;78.00;;;;;;5004277;28;20087;-71
2022/03/12 06:17:49;;;;;;;7.82;3.22;;;8.20;78.40;;;;;;4974366;28;20544;-70
2022/03/12 06:20:25;;;;;;;5.85;3.85;;;8.20;78.40;;;;;;5019933;28;20030;-71
2022/03/12 06:22:53;;;;;;;10.82;4.45;;;8.20;78.70;;;;;;5016534;28;20032;-70
2022/03/12 06:25:21;;;;;;;4.22;2.45;;;8.20;78.70;;;;;;5006548;28;20049;-70
2022/03/12 06:27:53;;;;;;;6.45;3.75;;;8.20;78.70;;;;;;5015243;28;20029;-70
2022/03/12 06:30:24;;;;;;;6.88;3.10;;;8.20;78.70;;;;;;4980984;28;20042;-71
2022/03/12 06:32:50;;;;;;;7.03;4.13;;;8.10;78.60;;;;;;5016381;28;20570;-70
2022/03/12 06:35:17;;;;;;;6.20;3.45;;;8.10;78.90;;;;;;4961800;28;20050;-70
2022/03/12 06:37:44;;;;;;;4.10;2.65;;;8.10;78.60;;;;;;4961121;28;20035;-70
2022/03/12 06:40:17;;;;;;;8.27;3.33;;;8.10;78.90;;;;;;4950623;28;20111;-72
2022/03/12 06:42:44;;;;;;;5.50;2.05;;;8.10;78.60;;;;;;4959345;28;20884;-70
2022/03/12 06:45:16;;;;;;;5.18;3.10;;;8.00;79.40;;;;;;4947056;28;20039;-71
2022/03/12 06:47:46;;;;;;;8.85;4.00;;;8.00;79.40;;;;;;4961536;28;20577;-71
2022/03/12 06:50:15;;;;;;;9.43;3.13;;;8.10;78.70;;;;;;4950205;28;20063;-73
2022/03/12 06:52:43;;;;;;;9.20;3.45;;;8.10;79.40;;;;;;4949990;28;20023;-70
2022/03/12 06:55:12;;;;;;;11.52;3.53;;;8.10;79.80;;;;;;4959278;28;20041;-71
2022/03/12 06:57:38;;;;;;;4.63;2.63;;;8.00;80.50;;;;;;4954392;28;20043;-73
2022/03/12 07:00:06;;;;;;;3.72;2.30;;;8.10;80.50;;;;;;4950197;28;20497;-72
2022/03/12 07:02:31;;;;;;;5.53;3.17;;;8.00;80.90;;;;;;4957257;28;20110;-73
2022/03/12 07:04:57;;;;;;;11.25;3.85;;;8.10;80.90;;;;;;4984462;28;20179;-73
2022/03/12 07:07:23;;;;;;;9.23;4.40;;;8.00;79.70;;;;;;4953117;28;20033;-73
2022/03/12 07:09:48;;;;;;;10.57;4.32;;;8.00;77.70;;;;;;4949758;28;20036;-72
2022/03/12 07:12:14;;;;;;;9.48;4.38;;;8.00;77.80;;;;;;4964250;28;20023;-71
2022/03/12 07:14:41;;;;;;;10.38;4.45;;;8.00;77.90;;;;;;4955705;28;20038;-73
2022/03/12 07:17:07;;;;;;;8.63;4.05;;;8.10;77.60;;;;;;4955086;28;20136;-73
2022/03/12 07:19:32;;;;;;;5.72;3.05;;;8.00;76.60;;;;;;4958714;28;20486;-73
2022/03/12 07:21:58;;;;;;;6.82;4.28;;;8.10;77.90;;;;;;4957879;28;20038;-73
2022/03/12 07:24:24;;;;;;;10.90;4.65;;;8.00;78.40;;;;;;4946572;28;20054;-73
2022/03/12 07:26:49;;;;;;;13.32;3.88;;;8.00;77.30;;;;;;4964763;28;20735;-70
2022/03/12 07:29:15;;;;;;;4.03;2.20;;;8.10;77.20;;;;;;4956894;28;20073;-70
2022/03/12 07:31:41;;;;;;;4.68;2.30;;;8.00;78.40;;;;;;4958651;28;20028;-70
2022/03/12 07:34:07;;;;;;;15.73;4.20;;;8.00;77.30;;;;;;4953087;28;20506;-72
2022/03/12 07:36:33;;;;;;;12.52;4.28;;;8.00;75.40;;;;;;4958391;28;20560;-70
2022/03/12 07:38:58;;;;;;;15.50;4.40;;;8.10;75.80;;;;;;4947988;28;20074;-69
2022/03/12 07:41:25;;;;;;;14.88;4.47;;;8.10;75.70;;;;;;4958630;28;20114;-69
2022/03/12 07:43:52;;;;;;;8.48;4.28;;;8.00;75.30;;;;;;4964655;28;20037;-70
2022/03/12 07:46:19;;;;;;;9.18;4.43;;;8.00;75.10;;;;;;4965996;28;20126;-69
2022/03/12 07:48:44;;;;;;;6.57;3.42;;;8.10;73.50;;;;;;4967534;28;20483;-70
2022/03/12 07:51:10;;;;;;;6.60;3.38;;;8.00;73.00;;;;;;4949639;28;20035;-71
2022/03/12 07:53:42;;;;;;;14.23;4.85;;;8.00;73.00;;;;;;4961954;28;20039;-68
2022/03/12 07:56:09;;;;;;;9.02;4.43;;;8.00;72.80;;;;;;4958543;28;20233;-68
2022/03/12 07:58:35;;;;;;;10.95;4.63;;;7.90;72.10;;;;;;4941618;28;20070;-68
2022/03/12 08:01:03;;;;;;;10.95;4.55;;;7.90;72.20;;;;;;4943755;28;20039;-67
2022/03/12 08:03:29;;;;;;;9.85;4.28;;;8.00;72.00;;;;;;4969321;28;20035;-69
2022/03/12 08:06:01;;;;;;;11.27;5.00;;;7.90;71.30;;;;;;4945367;28;20032;-68
2022/03/12 08:08:27;;;;;;;7.22;3.78;;;7.90;71.20;;;;;;4971594;28;20390;-69
2022/03/12 08:13:38;;;;;;;9.90;4.85;;;7.90;71.60;;;;;;4947042;28;20470;-68
2022/03/12 08:16:04;;;;;;;9.77;5.50;;;8.00;71.60;;;;;;4943595;28;20058;-69
2022/03/12 08:18:30;;;;;;;15.85;5.22;;;7.90;71.70;;;;;;4950870;28;20034;-70
2022/03/12 08:20:59;;;;;;;12.10;4.53;;;7.90;72.30;;;;;;4947108;28;20458;-70
2022/03/12 08:23:25;;;;;;;15.60;5.38;;;8.00;73.00;;;;;;4951192;28;20032;-67
2022/03/12 08:25:50;;;;;;;8.40;4.88;;;8.00;72.00;;;;;;4958215;28;20036;-67
2022/03/12 08:28:17;;;;;;;8.35;4.38;;;8.00;72.30;;;;;;4945015;28;20046;-67
2022/03/12 08:30:43;;;;;;;9.13;4.75;;;8.10;72.10;;;;;;4948507;28;20051;-70
2022/03/12 08:33:09;;;;;;;13.38;5.47;;;8.10;71.70;;;;;;4960353;28;20031;-68
2022/03/12 08:35:36;;;;;;;10.32;4.97;;;8.20;71.20;;;;;;4945250;28;20033;-68
2022/03/12 08:38:01;;;;;;;16.50;5.15;;;8.20;71.20;;;;;;4945415;28;20039;-68
2022/03/12 08:40:31;;;;;;;8.65;4.38;;;8.20;71.20;;;;;;4953566;28;20570;-70
2022/03/12 08:42:56;;;;;;;8.50;3.78;;;8.20;71.50;;;;;;4963682;28;20042;-70
2022/03/12 08:45:23;;;;;;;9.27;4.60;;;8.30;71.60;;;;;;4942648;28;20031;-70
2022/03/12 08:47:49;;;;;;;5.90;3.13;;;8.30;71.50;;;;;;5005794;28;20370;-70
2022/03/12 08:50:15;;;;;;;13.35;3.40;;;8.40;71.80;;;;;;5014145;28;20469;-69
2022/03/12 08:52:42;;;;;;;4.90;2.22;;;8.40;71.90;;;;;;5012989;28;20399;-69
2022/03/12 08:55:09;;;;;;;8.88;4.57;;;8.50;71.70;;;;;;4959050;28;20103;-69
2022/03/12 08:57:36;;;;;;;17.58;4.63;;;8.50;71.50;;;;;;4968625;28;20439;-70
2022/03/12 09:00:05;;;;;;;12.20;5.15;;;8.50;71.60;;;;;;4956562;28;20028;-73
2022/03/12 09:02:33;;;;;;;9.80;4.68;;;8.60;71.00;;;;;;5004792;28;20050;-71
2022/03/12 09:05:00;;;;;;;10.07;5.30;;;8.60;71.20;;;;;;4998161;28;20048;-70
2022/03/12 09:07:26;;;;;;;19.20;5.65;;;8.70;70.80;;;;;;5010061;28;20033;-69
2022/03/12 09:09:53;;;;;;;12.38;5.13;;;8.70;71.80;;;;;;4993892;28;20591;-70
2022/03/12 09:12:18;;;;;;;14.18;5.60;;;8.80;71.10;;;;;;4959174;28;20066;-70
2022/03/12 09:14:47;;;;;;;7.32;3.83;;;8.80;71.70;;;;;;4998550;28;20064;-70
2022/03/12 09:17:13;;;;;;;6.68;3.25;;;8.90;72.80;;;;;;4970474;28;20102;-67
2022/03/12 09:19:39;;;;;;;12.68;3.85;;;8.90;73.30;;;;;;4956141;28;20031;-71
2022/03/12 09:22:05;;;;;;;6.22;3.47;;;8.90;74.00;;;;;;4951640;28;20093;-67
2022/03/12 09:24:31;;;;;;;11.32;5.15;;;9.00;74.00;;;;;;5017834;28;20084;-68
2022/03/12 09:26:57;;;;;;;13.55;4.95;;;9.10;75.00;;;;;;4998138;28;20035;-68
2022/03/12 09:29:22;;;;;;;10.05;5.45;;;9.10;76.20;;;;;;4986099;28;20047;-69
2022/03/12 09:31:48;;;;;;;10.70;5.40;;;9.20;75.90;;;;;;5005302;28;20385;-67
2022/03/12 09:34:14;;;;;;;10.48;5.40;;;9.20;75.70;;;;;;5012333;28;20029;-67
2022/03/12 09:36:41;;;;;;;8.70;4.93;;;9.30;75.80;;;;;;5001516;28;20389;-68
2022/03/12 09:39:07;;;;;;;16.42;3.83;;;9.40;75.80;;;;;;4975107;28;20051;-68
2022/03/12 09:41:34;;;;;;;6.10;3.33;;;9.40;76.10;;;;;;4980213;28;20481;-68
2022/03/12 09:44:00;;;;;;;11.98;4.43;;;9.50;76.50;;;;;;5002274;28;20074;-69
2022/03/12 09:46:26;;;;;;;14.77;5.05;;;9.60;76.00;;;;;;4994502;28;20029;-68
2022/03/12 09:48:52;;;;;;;17.63;6.70;;;9.60;76.10;;;;;;5013573;28;20099;-70
2022/03/12 09:51:18;;;;;;;9.77;4.82;;;9.70;76.20;;;;;;5013878;28;20023;-74
2022/03/12 09:53:43;;;;;;;9.13;4.97;;;9.80;76.20;;;;;;4977853;28;20473;-68
2022/03/12 09:56:09;;;;;;;27.45;5.88;;;9.80;76.30;;;;;;4988771;28;20111;-68
2022/03/12 09:58:37;;;;;;;9.52;4.95;;;9.80;76.50;;;;;;4976957;28;20065;-67
2022/03/12 10:01:02;;;;;;;11.85;5.78;;;9.90;76.90;;;;;;4959360;28;20383;-69
2022/03/12 10:03:28;;;;;;;7.78;3.50;;;10.00;76.30;;;;;;4966258;28;20492;-68
2022/03/12 10:05:54;;;;;;;20.35;5.05;;;10.10;76.90;;;;;;4963810;28;20039;-69
2022/03/12 10:08:19;;;;;;;12.85;5.85;;;10.10;76.90;;;;;;4998493;28;20045;-68
2022/03/12 10:10:45;;;;;;;5.65;2.90;;;10.20;77.50;;;;;;4960186;28;20118;-68
2022/03/12 10:13:11;;;;;;;9.20;4.05;;;10.30;78.50;;;;;;4962390;28;20098;-68
2022/03/12 10:15:37;;;;;;;14.93;5.32;;;10.30;79.40;;;;;;4964053;28;20114;-68
2022/03/12 10:18:03;;;;;;;12.77;5.97;;;10.40;79.30;;;;;;4959618;28;20064;-68
2022/03/12 10:20:30;;;;;;;5.60;2.80;;;10.40;79.20;;;;;;4976392;28;20036;-68
2022/03/12 10:22:56;;;;;;;8.50;4.05;;;10.50;78.90;;;;;;4988471;28;20071;-74
2022/03/12 10:25:22;;;;;;;6.28;3.65;;;10.60;79.40;;;;;;4984958;28;20023;-70
2022/03/12 10:27:49;;;;;;;12.18;3.70;;;10.60;80.00;;;;;;4960106;28;20096;-70
2022/03/12 10:30:15;;;;;;;10.68;5.47;;;10.70;80.30;;;;;;5004688;28;20026;-70
2022/03/12 10:32:45;;;;;;;9.75;4.75;;;10.70;80.00;;;;;;4994925;28;20026;-68
2022/03/12 10:35:12;;;;;;;7.43;4.30;;;10.80;80.20;;;;;;4999783;28;20505;-67
2022/03/12 10:37:39;;;;;;;15.75;4.82;;;10.90;80.40;;;;;;4994462;28;20475;-68
2022/03/12 10:40:06;;;;;;;11.50;6.10;;;11.00;80.10;;;;;;5005603;28;20043;-68
2022/03/12 10:42:32;;;;;;;6.47;3.35;;;11.00;80.00;;;;;;5001877;28;20037;-67
2022/03/12 10:45:12;;;;;;;5.97;3.05;;;11.10;80.20;;;;;;5026263;28;20065;-68
2022/03/12 10:47:44;;;;;;;11.38;4.95;;;11.10;80.80;;;;;;5021377;28;20029;-68
2022/03/12 10:50:15;;;;;;;7.05;2.70;;;11.20;83.00;;;;;;4991331;28;20028;-68
2022/03/12 10:52:46;;;;;;;9.85;5.20;;;11.30;83.90;;;;;;4952506;28;20035;-68
2022/03/12 10:55:18;;;;;;;10.88;5.22;;;11.30;84.80;;;;;;4962569;28;20763;-68
2022/03/12 10:58:05;;;;;;;9.07;4.07;;;11.30;84.80;;;;;;4991308;28;20083;-68
2022/03/12 11:00:47;;;;;;;5.32;2.90;;;11.30;84.80;;;;;;4944469;28;20730;-68
2022/03/12 11:03:21;;;;;;;8.35;3.45;;;11.40;85.70;;;;;;4933260;28;20130;-68
2022/03/12 11:05:48;;;;;;;;;;;11.40;86.50;;;;;;4962127;28;20064;-68
2022/03/12 11:08:20;;;;;;;5.22;3.13;;;11.40;86.40;;;;;;4987359;28;19958;-68
2022/03/12 11:10:58;;;;;;;7.72;3.28;;;11.40;86.80;;;;;;4951308;28;20043;-68
2022/03/12 11:13:34;;;;;;;4.78;2.75;;;11.50;87.30;;;;;;4939823;28;20042;-68
2022/03/12 11:16:16;;;;;;;6.35;3.70;;;11.40;88.20;;;;;;4953728;28;20400;-67
2022/03/12 11:18:51;;;;;;;7.43;3.38;;;11.50;88.60;;;;;;4991503;28;21824;-67
2022/03/12 11:21:27;;;;;;;9.68;4.72;;;11.50;88.20;;;;;;5023977;28;20032;-68
2022/03/12 11:23:54;;;;;;;6.30;3.53;;;11.70;89.10;;;;;;5000495;28;20033;-69
2022/03/12 11:26:20;;;;;;;11.27;5.53;;;11.60;89.10;;;;;;4989790;28;20485;-68
2022/03/12 11:28:56;;;;;;;7.18;3.72;;;11.70;88.50;;;;;;4987245;28;20380;-68
2022/03/12 11:31:57;;;;;;;6.53;3.67;;;11.80;89.10;;;;;;5005775;28;20031;-70
2022/03/12 11:34:32;;;;;;;11.85;4.32;;;11.80;89.60;;;;;;4991445;28;20124;-69
2022/03/12 11:36:59;;;;;;;7.07;4.32;;;11.80;89.50;;;;;;4984265;28;20033;-70
2022/03/12 11:39:40;;;;;;;11.90;4.43;;;11.90;89.80;;;;;;5005024;28;20037;-67
2022/03/12 11:42:17;;;;;;;12.35;5.60;;;12.00;89.60;;;;;;5016609;28;20063;-69
2022/03/12 11:44:55;;;;;;;7.93;4.00;;;12.10;89.80;;;;;;5025646;28;20037;-71
2022/03/12 11:47:27;;;;;;;6.15;3.10;;;12.10;90.30;;;;;;5000941;28;20479;-71
2022/03/12 11:49:54;;;;;;;10.45;5.63;;;12.10;90.30;;;;;;4987398;28;20053;-71
2022/03/12 11:52:21;;;;;;;5.78;2.83;;;12.20;90.40;;;;;;5015153;28;20362;-71
2022/03/12 11:54:49;;;;;;;4.22;2.92;;;12.30;90.50;;;;;;4975040;28;20029;-71
2022/03/12 11:57:27;;;;;;;13.25;6.32;;;12.30;90.60;;;;;;4998256;28;20029;-71
2022/03/12 11:59:54;;;;;;;13.00;5.75;;;12.40;90.30;;;;;;4984276;28;20041;-71
2022/03/12 12:02:35;;;;;;;8.40;5.28;;;12.50;90.30;;;;;;5007636;28;20022;-71
2022/03/12 12:05:04;;;;;;;8.75;5.18;;;12.50;90.40;;;;;;5003067;28;20496;-71
2022/03/12 12:07:35;;;;;;;6.47;2.83;;;12.60;90.50;;;;;;5015102;28;20039;-71
2022/03/12 12:10:00;;;;;;;11.30;4.68;;;12.70;90.60;;;;;;4985983;28;20033;-71
2022/03/12 12:12:32;;;;;;;9.48;3.78;;;12.80;90.60;;;;;;5009805;28;20036;-71
2022/03/12 12:14:59;;;;;;;11.68;6.18;;;12.80;90.70;;;;;;4983107;28;20043;-71
2022/03/12 12:17:25;;;;;;;11.18;6.75;;;12.90;90.50;;;;;;4981652;28;20488;-71
2022/03/12 12:19:51;;;;;;;10.50;4.75;;;13.00;90.40;;;;;;4989097;28;20079;-71
2022/03/12 12:22:18;;;;;;;8.85;4.40;;;13.10;90.20;;;;;;4996014;28;20029;-71
2022/03/12 12:24:44;;;;;;;7.18;3.58;;;13.20;90.40;;;;;;4994463;28;20065;-71
2022/03/12 12:27:15;;;;;;;9.25;4.88;;;13.20;90.50;;;;;;4981262;28;20039;-71
2022/03/12 12:29:46;;;;;;;11.43;6.25;;;13.30;90.50;;;;;;5003300;28;20087;-71
2022/03/12 12:32:16;;;;;;;9.88;5.45;;;13.40;90.10;;;;;;4998166;28;20110;-71
2022/03/12 12:35:05;;;;;;;12.48;7.47;;;13.50;90.00;;;;;;4973460;28;20037;-74
2022/03/12 12:37:51;;;;;;;12.15;6.07;;;13.60;89.20;;;;;;5007132;28;20090;-68
2022/03/12 12:40:38;;;;;;;9.40;5.93;;;13.60;88.80;;;;;;5001213;28;20026;-69
2022/03/12 12:43:09;;;;;;;12.00;5.57;;;13.70;88.60;;;;;;4986832;28;20450;-69
2022/03/12 12:45:46;;;;;;;11.82;5.53;;;13.80;88.40;;;;;;5017020;28;20039;-70
2022/03/12 12:48:18;;;;;;;12.15;4.25;;;13.90;88.40;;;;;;5007852;28;20038;-69
2022/03/12 12:51:07;;;;;;;12.48;7.25;;;13.90;89.40;;;;;;5016128;28;20133;-71
2022/03/12 12:53:57;;;;;;;10.45;4.97;;;14.00;88.30;;;;;;5023369;28;20060;-70
2022/03/12 12:56:31;;;;;;;11.85;5.55;;;14.10;87.90;;;;;;5004205;28;20099;-72
2022/03/12 12:59:06;;;;;;;15.45;6.70;;;14.20;89.00;;;;;;5029826;28;20128;-69
2022/03/12 13:01:39;;;;;;;14.48;6.13;;;14.20;89.40;;;;;;4992277;28;20524;-70